Time;durP1;ratioP1;P1;durP2;ratioP2;P2;SDS_P1;SDS_P2;PMS_P1;PMS_P2;Temp;Humidity;BMP_temperature;BMP_pressure;BME280_temperature;BME280_humidity;BME280_pressure;Samples;Min_cycle;Max_cycle;Signal;HPM_P1;HPM_P2
2023/03/21 00:00:46;;;;;;;110.28;30.23;;;8.70;99.90;;;;;;5053891;28;20127;-49
2023/03/21 00:03:12;;;;;;;114.97;30.00;;;8.70;99.90;;;;;;5053700;28;20122;-46
2023/03/21 00:05:40;;;;;;;99.57;30.25;;;8.70;99.90;;;;;;5068917;28;20071;-46
2023/03/21 00:08:06;;;;;;;86.38;29.17;;;8.70;99.90;;;;;;5054429;28;20056;-51
2023/03/21 00:10:32;;;;;;;95.65;29.52;;;8.70;99.90;;;;;;5055141;28;20052;-39
2023/03/21 00:12:57;;;;;;;99.00;31.13;;;8.70;99.90;;;;;;5054461;28;20056;-45
2023/03/21 00:15:28;;;;;;;120.65;32.35;;;8.70;99.90;;;;;;5055534;28;20049;-49
2023/03/21 00:18:02;;;;;;;97.45;30.20;;;8.70;99.90;;;;;;5055705;28;20057;-44
2023/03/21 00:20:29;;;;;;;85.22;28.92;;;8.70;99.90;;;;;;5055239;28;20167;-45
2023/03/21 00:22:55;;;;;;;86.68;29.48;;;8.70;99.90;;;;;;5054460;28;20103;-40
2023/03/21 00:25:20;;;;;;;82.65;26.98;;;8.70;99.90;;;;;;5053480;28;20061;-45
2023/03/21 00:27:46;;;;;;;77.40;26.13;;;8.70;99.90;;;;;;5054387;28;20180;-51
2023/03/21 00:30:12;;;;;;;108.03;30.13;;;8.70;99.90;;;;;;5055265;28;20447;-48
2023/03/21 00:32:38;;;;;;;84.82;27.38;;;8.70;99.90;;;;;;5043375;28;20055;-48
2023/03/21 00:35:04;;;;;;;95.88;30.30;;;8.70;99.90;;;;;;5054884;28;20045;-48
2023/03/21 00:37:29;;;;;;;84.75;28.90;;;8.70;99.90;;;;;;5045002;28;20388;-43
2023/03/21 00:39:55;;;;;;;76.28;27.23;;;8.80;99.90;;;;;;5054330;28;20614;-47
2023/03/21 00:42:21;;;;;;;72.35;27.73;;;8.70;99.90;;;;;;5054637;28;20081;-45
2023/03/21 00:44:47;;;;;;;76.82;28.55;;;8.70;99.90;;;;;;5054101;28;20136;-46
2023/03/21 00:47:13;;;;;;;76.28;28.83;;;8.70;99.90;;;;;;5054280;28;20519;-43
2023/03/21 00:49:39;;;;;;;68.70;28.63;;;8.70;99.90;;;;;;5055325;28;20052;-49
2023/03/21 00:52:07;;;;;;;72.13;29.67;;;8.70;99.90;;;;;;5055433;28;20048;-47
2023/03/21 00:54:34;;;;;;;68.55;28.95;;;8.70;99.90;;;;;;5054980;28;20458;-43
2023/03/21 00:57:01;;;;;;;61.75;27.85;;;8.80;99.90;;;;;;5054762;28;20048;-39
2023/03/21 00:59:27;;;;;;;62.10;26.70;;;8.80;99.90;;;;;;5052687;28;20151;-50
2023/03/21 01:01:53;;;;;;;59.17;27.08;;;8.80;99.90;;;;;;5057994;28;20049;-45
2023/03/21 01:04:20;;;;;;;53.33;27.23;;;8.80;99.90;;;;;;5077709;28;20048;-42
2023/03/21 01:06:46;;;;;;;50.55;26.92;;;8.70;99.90;;;;;;5078725;28;20071;-45
2023/03/21 01:09:15;;;;;;;54.05;27.25;;;8.80;99.90;;;;;;5045449;28;20624;-47
2023/03/21 01:11:41;;;;;;;58.67;29.00;;;8.80;99.90;;;;;;5072262;28;20055;-49
2023/03/21 01:14:08;;;;;;;51.67;27.58;;;8.80;99.90;;;;;;5078223;28;20059;-54
2023/03/21 01:16:34;;;;;;;45.17;26.58;;;8.80;99.90;;;;;;5078030;28;20600;-43
2023/03/21 01:19:00;;;;;;;48.03;27.23;;;8.80;99.90;;;;;;5078820;28;20056;-49
2023/03/21 01:21:26;;;;;;;46.95;26.05;;;8.80;99.90;;;;;;5078379;28;20059;-49
2023/03/21 01:23:52;;;;;;;44.95;25.40;;;8.80;99.90;;;;;;5075984;28;20048;-48
2023/03/21 01:26:17;;;;;;;42.85;26.08;;;8.80;99.90;;;;;;5060407;28;20055;-44
2023/03/21 01:28:44;;;;;;;43.10;24.02;;;8.80;99.90;;;;;;5078136;28;20052;-46
2023/03/21 01:31:12;;;;;;;41.97;24.33;;;8.80;99.90;;;;;;5078460;28;20515;-49
2023/03/21 01:33:38;;;;;;;43.42;25.23;;;8.80;99.90;;;;;;5057368;28;20044;-46
2023/03/21 01:36:05;;;;;;;34.17;22.50;;;8.80;99.90;;;;;;5072496;28;20082;-46
2023/03/21 01:38:30;;;;;;;37.05;23.23;;;8.80;99.90;;;;;;5049647;28;20574;-45
2023/03/21 01:41:03;;;;;;;35.78;22.23;;;8.80;99.90;;;;;;5057010;28;20041;-48
2023/03/21 01:43:34;;;;;;;30.43;21.10;;;8.80;99.90;;;;;;5066288;28;20471;-51
2023/03/21 01:46:09;;;;;;;32.60;21.90;;;8.80;99.90;;;;;;5077929;28;20056;-44
2023/03/21 01:48:40;;;;;;;33.80;22.42;;;8.80;99.90;;;;;;5078572;28;20134;-44
2023/03/21 01:51:11;;;;;;;33.35;22.52;;;8.80;99.90;;;;;;5078439;28;20125;-44
2023/03/21 01:53:39;;;;;;;33.10;21.50;;;8.90;99.90;;;;;;5064046;28;20044;-43
2023/03/21 01:56:10;;;;;;;33.47;22.25;;;8.80;99.90;;;;;;5076285;28;20043;-42
2023/03/21 01:58:38;;;;;;;37.05;24.60;;;8.80;99.90;;;;;;5078309;28;20043;-48
2023/03/21 02:01:05;;;;;;;35.78;23.40;;;8.80;99.90;;;;;;5055265;28;20404;-46
2023/03/21 02:03:36;;;;;;;34.50;22.60;;;8.80;99.90;;;;;;5056961;28;20481;-44
2023/03/21 02:06:08;;;;;;;33.95;23.15;;;8.80;99.90;;;;;;5064350;28;20293;-47
2023/03/21 02:08:34;;;;;;;34.53;22.63;;;8.80;99.90;;;;;;5077404;28;20375;-47
2023/03/21 02:11:00;;;;;;;38.63;24.88;;;8.80;99.90;;;;;;5069045;28;20057;-46
2023/03/21 02:13:26;;;;;;;32.75;23.13;;;8.80;99.90;;;;;;5070072;28;20055;-46
2023/03/21 02:16:05;;;;;;;33.75;22.77;;;8.90;99.90;;;;;;5077370;28;20040;-47
2023/03/21 02:19:09;;;;;;;33.50;23.13;;;8.80;99.90;;;;;;5076912;28;20104;-48
2023/03/21 02:21:55;;;;;;;33.40;22.30;;;8.80;99.90;;;;;;5017055;28;20541;-47
2023/03/21 02:24:49;;;;;;;34.95;23.00;;;8.80;99.90;;;;;;5033441;28;20053;-45
2023/03/21 02:27:22;;;;;;;35.33;22.75;;;8.80;99.90;;;;;;5033905;28;20048;-47
2023/03/21 02:30:06;;;;;;;31.13;21.20;;;8.80;99.90;;;;;;5033927;28;20084;-43
2023/03/21 02:32:56;;;;;;;33.45;22.60;;;8.90;99.90;;;;;;4990467;28;20068;-49
2023/03/21 02:35:40;;;;;;;28.73;21.25;;;8.80;99.90;;;;;;5012588;28;20134;-51
2023/03/21 02:38:19;;;;;;;32.45;21.75;;;8.80;99.90;;;;;;5008606;28;20168;-45
2023/03/21 02:41:08;;;;;;;36.90;23.17;;;8.80;99.90;;;;;;5013930;28;20728;-47
2023/03/21 02:44:00;;;;;;;36.03;21.83;;;8.80;99.90;;;;;;5013055;28;20061;-44
2023/03/21 02:46:34;;;;;;;40.42;23.13;;;8.80;99.90;;;;;;5013691;28;20135;-45
2023/03/21 02:49:11;;;;;;;36.25;22.25;;;8.80;99.90;;;;;;5013525;28;20521;-39
2023/03/21 02:51:40;;;;;;;35.67;22.60;;;8.80;99.90;;;;;;5014448;28;20210;-47
2023/03/21 02:54:10;;;;;;;35.60;21.92;;;8.90;99.90;;;;;;5012328;28;20161;-46
2023/03/21 02:56:36;;;;;;;34.65;21.73;;;8.90;99.90;;;;;;5023912;28;20061;-45
2023/03/21 02:59:05;;;;;;;33.88;21.63;;;8.90;99.90;;;;;;5053841;28;20147;-47
2023/03/21 03:01:31;;;;;;;36.92;21.75;;;8.90;99.90;;;;;;5048942;28;20922;-45
2023/03/21 03:03:57;;;;;;;36.70;21.10;;;8.80;99.90;;;;;;5068355;28;20044;-46
2023/03/21 03:06:32;;;;;;;39.58;22.50;;;8.90;99.90;;;;;;5064206;28;20457;-46
2023/03/21 03:09:06;;;;;;;41.25;22.25;;;8.90;99.90;;;;;;5062654;28;20055;-48
2023/03/21 03:11:44;;;;;;;39.95;22.48;;;8.80;99.90;;;;;;5077205;28;20558;-41
2023/03/21 03:14:31;;;;;;;35.40;20.27;;;8.80;99.90;;;;;;5076657;28;20059;-47
2023/03/21 03:17:13;;;;;;;35.90;19.60;;;8.80;99.90;;;;;;5076359;28;20073;-52
2023/03/21 03:19:54;;;;;;;37.17;20.95;;;8.90;99.90;;;;;;5077001;28;20115;-49
2023/03/21 03:22:39;;;;;;;36.75;19.70;;;8.90;99.90;;;;;;5042333;28;20440;-40
2023/03/21 03:25:10;;;;;;;37.22;19.45;;;8.80;99.90;;;;;;5073040;28;20052;-45
2023/03/21 03:27:41;;;;;;;34.80;19.25;;;8.90;99.90;;;;;;5076431;28;20277;-46
2023/03/21 03:30:09;;;;;;;32.00;19.42;;;8.90;99.90;;;;;;5077034;28;20055;-43
2023/03/21 03:32:45;;;;;;;35.75;19.48;;;8.80;99.90;;;;;;5054626;28;20049;-41
2023/03/21 03:35:15;;;;;;;36.33;18.90;;;8.90;99.90;;;;;;5050349;28;20051;-50
2023/03/21 03:37:41;;;;;;;39.72;20.25;;;8.80;99.90;;;;;;5054075;28;20052;-46
2023/03/21 03:40:15;;;;;;;37.72;20.80;;;8.80;99.90;;;;;;5055915;28;20106;-46
2023/03/21 03:42:51;;;;;;;44.60;21.85;;;8.90;99.90;;;;;;5059669;28;20048;-50
2023/03/21 03:45:19;;;;;;;39.22;20.92;;;8.80;99.90;;;;;;5056031;28;20426;-46
2023/03/21 03:47:51;;;;;;;41.75;22.10;;;8.80;99.90;;;;;;5055589;28;20076;-43
2023/03/21 03:50:27;;;;;;;37.55;21.23;;;8.80;99.90;;;;;;5055412;28;20155;-46
2023/03/21 03:53:05;;;;;;;43.75;23.05;;;8.80;99.90;;;;;;5052249;28;20559;-48
2023/03/21 03:55:33;;;;;;;37.70;20.55;;;8.80;99.90;;;;;;5056658;28;20048;-39
2023/03/21 03:58:00;;;;;;;47.75;23.42;;;8.80;99.90;;;;;;5075876;28;20345;-48
2023/03/21 04:00:26;;;;;;;42.22;22.58;;;8.80;99.90;;;;;;5058697;28;20565;-44
2023/03/21 04:02:53;;;;;;;47.60;23.35;;;8.80;99.90;;;;;;5054086;28;20055;-47
2023/03/21 04:05:20;;;;;;;50.08;23.58;;;8.80;99.90;;;;;;5054677;28;20392;-48
2023/03/21 04:07:49;;;;;;;51.65;25.15;;;8.80;99.90;;;;;;5054257;28;20430;-40
2023/03/21 04:10:16;;;;;;;42.60;23.60;;;8.80;99.90;;;;;;5067725;28;20048;-46
2023/03/21 04:12:42;;;;;;;45.60;24.08;;;8.80;99.90;;;;;;5062858;28;20126;-45
2023/03/21 04:15:08;;;;;;;44.63;24.92;;;8.80;99.90;;;;;;5075656;28;20097;-51
2023/03/21 04:17:34;;;;;;;40.67;22.73;;;8.80;99.90;;;;;;5075621;28;20134;-50
2023/03/21 04:19:59;;;;;;;46.85;25.38;;;8.80;99.90;;;;;;5075090;28;20508;-42
2023/03/21 04:22:25;;;;;;;43.22;24.80;;;8.80;99.90;;;;;;5074758;28;20455;-42
2023/03/21 04:24:52;;;;;;;42.83;24.48;;;8.80;99.90;;;;;;5059281;28;20536;-40
2023/03/21 04:27:17;;;;;;;45.20;25.92;;;8.80;99.90;;;;;;5064567;28;20047;-51
2023/03/21 04:29:43;;;;;;;40.33;24.17;;;8.80;99.90;;;;;;5075513;28;20040;-46
2023/03/21 04:32:15;;;;;;;45.38;26.13;;;8.80;99.90;;;;;;5061345;28;20049;-50
2023/03/21 04:34:42;;;;;;;44.17;24.38;;;8.90;99.90;;;;;;5051746;28;20410;-46
2023/03/21 04:37:10;;;;;;;41.80;24.45;;;8.80;99.90;;;;;;5055679;28;20049;-48
2023/03/21 04:39:37;;;;;;;49.60;26.30;;;8.90;99.90;;;;;;5070239;28;20067;-40
2023/03/21 04:42:03;;;;;;;47.33;25.70;;;8.80;99.90;;;;;;5058737;28;20544;-50
2023/03/21 04:44:29;;;;;;;42.47;24.38;;;8.90;99.90;;;;;;5063033;28;20048;-47
2023/03/21 04:46:55;;;;;;;45.22;24.58;;;8.90;99.90;;;;;;5078199;28;20058;-46
2023/03/21 04:49:21;;;;;;;44.45;24.55;;;8.90;99.90;;;;;;5061305;28;20625;-44
2023/03/21 04:51:47;;;;;;;43.53;24.08;;;8.90;99.90;;;;;;5058336;28;20083;-49
2023/03/21 04:54:13;;;;;;;40.38;23.00;;;8.90;99.90;;;;;;5057342;28;20503;-46
2023/03/21 04:56:38;;;;;;;40.17;22.90;;;8.90;99.90;;;;;;5058977;28;20052;-48
2023/03/21 04:59:08;;;;;;;41.65;21.90;;;8.90;99.90;;;;;;5055915;28;20120;-48
2023/03/21 05:01:33;;;;;;;45.00;23.95;;;8.90;99.90;;;;;;5047128;28;20129;-47
2023/03/21 05:04:01;;;;;;;46.22;23.73;;;8.90;99.90;;;;;;5070062;28;20060;-46
2023/03/21 05:06:28;;;;;;;44.40;22.75;;;8.90;99.90;;;;;;5077022;28;20410;-51
2023/03/21 05:08:58;;;;;;;42.97;22.40;;;8.90;99.90;;;;;;5064818;28;20360;-46
2023/03/21 05:11:25;;;;;;;42.42;22.48;;;8.90;99.90;;;;;;5078348;28;20133;-47
2023/03/21 05:13:51;;;;;;;42.20;23.08;;;8.90;99.90;;;;;;5075349;28;20051;-49
2023/03/21 05:16:16;;;;;;;46.58;23.23;;;8.90;99.90;;;;;;5078229;28;20454;-45
2023/03/21 05:18:42;;;;;;;49.13;24.60;;;8.90;99.90;;;;;;5078149;28;20437;-39
2023/03/21 05:21:09;;;;;;;47.33;23.83;;;8.90;99.90;;;;;;5068060;28;20056;-49
2023/03/21 05:23:40;;;;;;;40.22;21.85;;;8.90;99.90;;;;;;5061920;28;20055;-48
2023/03/21 05:26:07;;;;;;;42.80;22.35;;;8.90;99.90;;;;;;5079112;28;20051;-42
2023/03/21 05:28:35;;;;;;;44.28;23.17;;;8.90;99.90;;;;;;5077368;28;20125;-48
2023/03/21 05:31:04;;;;;;;44.08;22.48;;;8.90;99.90;;;;;;5078604;28;20645;-48
2023/03/21 05:33:30;;;;;;;38.13;21.77;;;8.90;99.90;;;;;;5047157;28;20048;-46
2023/03/21 05:35:57;;;;;;;44.20;22.73;;;8.90;99.90;;;;;;5058049;28;20055;-42
2023/03/21 05:38:23;;;;;;;42.55;22.60;;;8.90;99.90;;;;;;5045279;28;20056;-46
2023/03/21 05:40:49;;;;;;;42.15;23.08;;;8.90;99.90;;;;;;5057624;28;20399;-41
2023/03/21 05:43:15;;;;;;;39.17;23.23;;;8.90;99.90;;;;;;5055575;28;20072;-44
2023/03/21 05:45:42;;;;;;;38.83;23.90;;;8.90;99.90;;;;;;5057914;28;20082;-52
2023/03/21 05:48:07;;;;;;;45.90;24.58;;;8.90;99.90;;;;;;5056477;28;20048;-48
2023/03/21 05:50:33;;;;;;;49.10;26.02;;;8.90;99.90;;;;;;5057627;28;20048;-45
2023/03/21 05:52:59;;;;;;;44.38;25.45;;;8.90;99.90;;;;;;5054051;28;20756;-45
2023/03/21 05:55:24;;;;;;;45.40;25.75;;;8.90;99.90;;;;;;5056401;28;20048;-42
2023/03/21 05:57:50;;;;;;;47.53;27.13;;;8.90;99.90;;;;;;5056776;28;20546;-47
2023/03/21 06:00:16;;;;;;;44.42;26.55;;;8.90;99.90;;;;;;5055604;28;20098;-48
2023/03/21 06:02:43;;;;;;;45.35;25.58;;;8.90;99.90;;;;;;5056589;28;20050;-40
2023/03/21 06:05:09;;;;;;;48.92;25.73;;;8.90;99.90;;;;;;5057950;28;20044;-51
2023/03/21 06:07:35;;;;;;;47.08;26.30;;;8.90;99.90;;;;;;5077877;28;20125;-45
2023/03/21 06:10:03;;;;;;;46.55;25.65;;;8.90;99.90;;;;;;5077624;28;20515;-41
2023/03/21 06:12:29;;;;;;;50.00;25.33;;;8.90;99.90;;;;;;5076362;28;20520;-40
2023/03/21 06:14:55;;;;;;;42.53;25.00;;;9.00;99.90;;;;;;5078335;28;20052;-45
2023/03/21 06:17:20;;;;;;;45.53;26.17;;;8.90;99.90;;;;;;5044793;28;20066;-47
2023/03/21 06:19:46;;;;;;;41.78;24.45;;;8.90;99.90;;;;;;5057457;28;20080;-46
2023/03/21 06:22:12;;;;;;;41.50;24.02;;;9.00;99.90;;;;;;5056736;28;20044;-40
2023/03/21 06:24:37;;;;;;;41.28;23.73;;;8.90;99.90;;;;;;5057813;28;20044;-53
2023/03/21 06:27:04;;;;;;;43.17;24.52;;;9.00;99.90;;;;;;5063828;28;20423;-46
2023/03/21 06:29:30;;;;;;;40.00;22.70;;;9.00;99.90;;;;;;5076021;28;20050;-39
2023/03/21 06:31:55;;;;;;;41.78;24.52;;;9.00;99.90;;;;;;5067703;28;20494;-48
2023/03/21 06:34:21;;;;;;;33.17;21.25;;;9.00;99.90;;;;;;5051217;28;20452;-43
2023/03/21 06:36:47;;;;;;;36.28;21.60;;;9.00;99.90;;;;;;5069077;28;20041;-45
2023/03/21 06:39:14;;;;;;;36.65;20.92;;;9.00;99.90;;;;;;5064047;28;20104;-46
2023/03/21 06:41:40;;;;;;;32.13;19.83;;;9.00;99.90;;;;;;5077185;28;20052;-40
2023/03/21 06:44:06;;;;;;;34.20;20.80;;;9.00;99.90;;;;;;5077066;28;20066;-50
2023/03/21 06:46:32;;;;;;;35.33;21.50;;;9.00;99.90;;;;;;5077364;28;20048;-41
2023/03/21 06:48:57;;;;;;;35.22;20.20;;;9.00;99.90;;;;;;5076261;28;20044;-45
2023/03/21 06:51:23;;;;;;;39.10;21.17;;;9.00;99.90;;;;;;5073381;28;20089;-52
2023/03/21 06:53:49;;;;;;;60.35;21.77;;;9.00;99.90;;;;;;5074263;28;20047;-45
2023/03/21 06:56:15;;;;;;;30.35;20.77;;;9.00;99.90;;;;;;5056370;28;20079;-40
2023/03/21 06:58:41;;;;;;;53.70;20.90;;;9.00;99.90;;;;;;5039009;28;20122;-51
2023/03/21 07:01:07;;;;;;;32.72;21.17;;;9.00;99.90;;;;;;5055132;28;20045;-49
2023/03/21 07:03:33;;;;;;;31.40;20.33;;;9.00;99.90;;;;;;5068027;28;20479;-49
2023/03/21 07:06:06;;;;;;;28.48;19.85;;;9.00;99.90;;;;;;5076981;28;20044;-47
2023/03/21 07:08:31;;;;;;;27.98;20.38;;;9.00;99.90;;;;;;5076604;28;20055;-41
2023/03/21 07:10:57;;;;;;;26.30;18.80;;;9.00;99.90;;;;;;5067797;28;20052;-51
2023/03/21 07:13:23;;;;;;;31.50;18.58;;;9.00;99.90;;;;;;5069602;28;20524;-45
2023/03/21 07:15:49;;;;;;;25.55;18.40;;;9.10;99.90;;;;;;5076043;28;20080;-48
2023/03/21 07:18:14;;;;;;;27.52;18.15;;;9.10;99.90;;;;;;5074832;28;20513;-50
2023/03/21 07:20:40;;;;;;;22.33;17.65;;;9.10;99.90;;;;;;5064298;28;20093;-40
2023/03/21 07:23:06;;;;;;;24.63;17.70;;;9.10;99.90;;;;;;5075006;28;20048;-47
2023/03/21 07:25:32;;;;;;;22.52;17.77;;;9.10;99.90;;;;;;5076189;28;20044;-45
2023/03/21 07:27:58;;;;;;;24.42;18.58;;;9.10;99.90;;;;;;5074770;28;20579;-47
2023/03/21 07:30:24;;;;;;;23.05;17.75;;;9.10;99.90;;;;;;5076429;28;20125;-43
2023/03/21 07:32:49;;;;;;;23.08;18.02;;;9.10;99.90;;;;;;5049434;28;20496;-42
2023/03/21 07:35:16;;;;;;;23.52;18.25;;;9.20;99.90;;;;;;5055696;28;20055;-43
2023/03/21 07:37:42;;;;;;;22.98;18.48;;;9.20;99.90;;;;;;5045520;28;20044;-42
2023/03/21 07:40:09;;;;;;;23.30;17.60;;;9.10;99.90;;;;;;5056395;28;20048;-48
2023/03/21 07:42:36;;;;;;;22.90;17.52;;;9.20;99.90;;;;;;5055453;28;20124;-46
2023/03/21 07:45:03;;;;;;;26.02;18.67;;;9.10;99.90;;;;;;5054622;28;20127;-44
2023/03/21 07:47:30;;;;;;;21.85;18.50;;;9.20;99.90;;;;;;5056316;28;20458;-50
2023/03/21 07:49:56;;;;;;;24.10;19.10;;;9.20;99.90;;;;;;5056059;28;20055;-45
2023/03/21 07:52:21;;;;;;;24.42;18.63;;;9.20;99.90;;;;;;5054279;28;20445;-50
2023/03/21 07:54:47;;;;;;;24.27;19.27;;;9.20;99.90;;;;;;5056335;28;20608;-47
2023/03/21 07:57:12;;;;;;;25.42;19.60;;;9.10;99.90;;;;;;5055401;28;20044;-47
2023/03/21 07:59:38;;;;;;;26.00;19.50;;;9.10;99.90;;;;;;5054194;28;20406;-47
2023/03/21 08:02:04;;;;;;;27.00;20.50;;;9.20;99.90;;;;;;5056010;28;20053;-41
2023/03/21 08:04:31;;;;;;;24.45;19.80;;;9.10;99.90;;;;;;5076135;28;20138;-46
2023/03/21 08:06:56;;;;;;;25.73;19.63;;;9.20;99.90;;;;;;5074822;28;20696;-42
2023/03/21 08:09:22;;;;;;;29.10;21.02;;;9.20;99.90;;;;;;5076164;28;20058;-44
2023/03/21 08:11:48;;;;;;;28.70;21.08;;;9.20;99.90;;;;;;5074827;28;20048;-43
2023/03/21 08:14:13;;;;;;;30.25;21.25;;;9.20;99.90;;;;;;5068025;28;20084;-46
2023/03/21 08:16:39;;;;;;;26.20;20.75;;;9.20;99.90;;;;;;5070002;28;20043;-52
2023/03/21 08:19:05;;;;;;;28.73;21.13;;;9.20;99.90;;;;;;5076336;28;20052;-50
2023/03/21 08:21:30;;;;;;;35.15;22.55;;;9.30;99.90;;;;;;5074530;28;20453;-42
2023/03/21 08:23:56;;;;;;;31.05;22.27;;;9.30;99.90;;;;;;5075168;28;20044;-41
2023/03/21 08:26:25;;;;;;;28.23;23.10;;;9.30;99.90;;;;;;5076064;28;20044;-51
2023/03/21 08:28:51;;;;;;;30.30;24.13;;;9.30;99.90;;;;;;5075448;28;20119;-47
2023/03/21 08:31:17;;;;;;;30.70;23.38;;;9.30;99.90;;;;;;5074730;28;20043;-51
2023/03/21 08:33:42;;;;;;;33.08;25.70;;;9.30;99.90;;;;;;5044064;28;20051;-40
2023/03/21 08:36:09;;;;;;;33.53;25.27;;;9.30;99.90;;;;;;5057166;28;20051;-50
2023/03/21 08:38:35;;;;;;;40.17;26.20;;;9.30;99.90;;;;;;5054682;28;20048;-49
2023/03/21 08:41:00;;;;;;;39.15;27.98;;;9.30;99.90;;;;;;5073023;28;20078;-40
2023/03/21 08:43:27;;;;;;;34.72;27.88;;;9.30;99.90;;;;;;5062586;28;20048;-47
2023/03/21 08:45:54;;;;;;;39.47;28.60;;;9.30;99.90;;;;;;5074916;28;20362;-47
2023/03/21 08:48:20;;;;;;;36.80;28.48;;;9.30;99.90;;;;;;5075042;28;20044;-44
2023/03/21 08:50:46;;;;;;;38.55;29.13;;;9.30;99.90;;;;;;5074732;28;20044;-45
2023/03/21 08:53:12;;;;;;;40.20;31.15;;;9.20;99.90;;;;;;5072841;28;20075;-47
2023/03/21 08:55:38;;;;;;;42.13;31.75;;;9.30;99.90;;;;;;5071895;28;20063;-46
2023/03/21 08:58:04;;;;;;;41.97;30.70;;;9.30;99.90;;;;;;5053570;28;20045;-49
2023/03/21 09:00:29;;;;;;;46.17;33.75;;;9.30;99.90;;;;;;5053515;28;20040;-46
2023/03/21 09:02:57;;;;;;;44.03;30.33;;;9.30;99.90;;;;;;5052750;28;20048;-49
2023/03/21 09:05:25;;;;;;;44.10;30.75;;;9.30;99.90;;;;;;5057348;28;20737;-46
2023/03/21 09:07:51;;;;;;;46.83;31.33;;;9.30;99.90;;;;;;5063130;28;20047;-40
2023/03/21 09:10:20;;;;;;;43.42;32.78;;;9.30;99.90;;;;;;5061859;28;20063;-47
2023/03/21 09:12:47;;;;;;;41.25;32.38;;;9.30;99.90;;;;;;5073946;28;20052;-47
2023/03/21 09:15:13;;;;;;;46.03;32.95;;;9.30;99.90;;;;;;5082007;28;20095;-48
2023/03/21 09:17:43;;;;;;;37.92;30.48;;;9.30;99.90;;;;;;5050603;28;20052;-51
2023/03/21 09:20:17;;;;;;;40.08;29.15;;;9.30;99.90;;;;;;5061841;28;20134;-54
2023/03/21 09:22:45;;;;;;;36.97;27.23;;;9.40;99.90;;;;;;5068845;28;20048;-45
2023/03/21 09:25:12;;;;;;;40.95;26.10;;;9.30;99.90;;;;;;5053938;28;20044;-44
2023/03/21 09:27:38;;;;;;;39.90;27.83;;;9.30;99.90;;;;;;5054255;28;20040;-42
2023/03/21 09:30:06;;;;;;;39.08;26.23;;;9.40;99.90;;;;;;5055799;28;20048;-48
2023/03/21 09:32:32;;;;;;;42.60;26.63;;;9.40;99.90;;;;;;5067067;28;20062;-41
2023/03/21 09:34:59;;;;;;;41.00;27.35;;;9.30;99.90;;;;;;5076783;28;20131;-47
2023/03/21 09:37:24;;;;;;;37.90;26.90;;;9.40;99.90;;;;;;5070281;28;20496;-45
2023/03/21 09:39:51;;;;;;;43.45;26.63;;;9.30;99.90;;;;;;5077925;28;20044;-53
2023/03/21 09:42:31;;;;;;;38.58;25.42;;;9.40;99.90;;;;;;5076129;28;20439;-44
2023/03/21 09:45:11;;;;;;;39.22;26.95;;;9.40;99.90;;;;;;5051899;28;20228;-42
2023/03/21 09:47:53;;;;;;;40.25;26.48;;;9.40;99.90;;;;;;5055646;28;20098;-45
2023/03/21 09:50:27;;;;;;;34.05;24.67;;;9.50;99.90;;;;;;5055235;28;20517;-48
2023/03/21 09:52:58;;;;;;;33.38;24.45;;;9.50;99.90;;;;;;5054939;28;20320;-44
2023/03/21 09:55:32;;;;;;;36.00;24.45;;;9.60;99.90;;;;;;5057023;28;20049;-40
2023/03/21 09:58:28;;;;;;;39.45;23.90;;;9.70;99.90;;;;;;5045145;28;20044;-47
2023/03/21 10:01:40;;;;;;;32.47;24.05;;;9.70;99.90;;;;;;5057823;28;20143;-43
2023/03/21 10:04:11;;;;;;;31.02;21.92;;;9.70;99.90;;;;;;5048528;28;20111;-47
2023/03/21 10:06:40;;;;;;;34.88;21.98;;;9.80;99.90;;;;;;5039204;28;20045;-43
2023/03/21 10:09:23;;;;;;;32.00;19.52;;;9.80;99.90;;;;;;5045811;28;20052;-43
2023/03/21 10:12:00;;;;;;;24.45;18.77;;;9.80;99.90;;;;;;5047061;28;20045;-46
2023/03/21 10:14:33;;;;;;;28.40;18.88;;;9.90;99.90;;;;;;5046575;28;20044;-49
2023/03/21 10:17:11;;;;;;;29.98;19.60;;;9.90;99.90;;;;;;5052781;28;20151;-45
2023/03/21 10:19:37;;;;;;;32.38;19.08;;;9.90;99.90;;;;;;5082621;27;20983;-45
2023/03/21 10:22:02;;;;;;;25.45;17.77;;;10.00;99.90;;;;;;5056151;28;20135;-46
2023/03/21 10:24:31;;;;;;;27.25;16.83;;;10.00;99.90;;;;;;5068861;28;20610;-47
2023/03/21 10:26:58;;;;;;;27.00;17.85;;;10.10;99.90;;;;;;5107510;27;20411;-49
2023/03/21 10:29:29;;;;;;;28.77;17.95;;;10.20;99.90;;;;;;5076750;28;20048;-47
2023/03/21 10:31:55;;;;;;;29.42;18.83;;;10.20;99.90;;;;;;5070321;28;20577;-47
2023/03/21 10:34:32;;;;;;;27.15;18.02;;;10.30;99.90;;;;;;5056491;28;20045;-40
2023/03/21 10:37:00;;;;;;;27.05;17.13;;;10.30;99.90;;;;;;5052461;28;20044;-46
2023/03/21 10:39:46;;;;;;;29.67;18.70;;;10.40;99.90;;;;;;5056171;28;20527;-44
2023/03/21 10:42:22;;;;;;;26.33;17.27;;;10.50;99.90;;;;;;5052223;28;20124;-51
2023/03/21 10:44:50;;;;;;;26.60;17.85;;;10.50;99.90;;;;;;5054462;28;20406;-48
2023/03/21 10:47:25;;;;;;;23.58;15.35;;;10.70;99.90;;;;;;5053794;28;20104;-42
2023/03/21 10:49:51;;;;;;;25.35;15.63;;;10.70;99.90;;;;;;5055263;28;20088;-39
2023/03/21 10:52:21;;;;;;;24.05;16.92;;;10.70;99.90;;;;;;5051639;28;20345;-44
2023/03/21 10:54:48;;;;;;;22.45;15.52;;;10.80;99.90;;;;;;5052906;28;20036;-44
2023/03/21 10:57:24;;;;;;;24.23;15.95;;;10.80;99.90;;;;;;5055509;28;20061;-48
2023/03/21 10:59:57;;;;;;;25.60;16.40;;;10.80;99.90;;;;;;5017732;28;20040;-48
2023/03/21 11:02:34;;;;;;;24.73;16.25;;;10.80;99.90;;;;;;5051073;28;20127;-48
2023/03/21 11:05:06;;;;;;;23.13;15.55;;;10.90;99.90;;;;;;5044551;28;20057;-46
2023/03/21 11:07:32;;;;;;;20.27;15.55;;;10.90;99.90;;;;;;5062674;28;20071;-39
2023/03/21 11:10:00;;;;;;;22.67;15.00;;;10.90;99.90;;;;;;5055674;28;20103;-47
2023/03/21 11:12:37;;;;;;;20.95;14.88;;;11.00;99.90;;;;;;5052510;28;20044;-44
2023/03/21 11:15:26;;;;;;;18.13;13.65;;;11.10;99.90;;;;;;5055916;28;20056;-49
2023/03/21 11:17:51;;;;;;;20.83;14.40;;;11.10;99.90;;;;;;5056081;28;20071;-52
2023/03/21 11:20:18;;;;;;;19.35;14.82;;;11.10;99.90;;;;;;5055617;28;20510;-48
2023/03/21 11:22:46;;;;;;;21.02;15.00;;;11.20;99.90;;;;;;5065917;28;20048;-45
2023/03/21 11:25:37;;;;;;;20.83;13.43;;;11.20;99.90;;;;;;5062386;28;20051;-41
2023/03/21 11:28:16;;;;;;;21.20;12.05;;;11.30;99.90;;;;;;5045087;28;20091;-47
2023/03/21 11:30:56;;;;;;;19.13;12.70;;;11.30;99.90;;;;;;5055647;28;20487;-49
2023/03/21 11:33:31;;;;;;;20.35;13.20;;;11.30;99.90;;;;;;5042449;28;20055;-50
2023/03/21 11:36:06;;;;;;;16.67;12.90;;;11.40;99.90;;;;;;5053046;28;20037;-47
2023/03/21 11:38:36;;;;;;;21.40;14.10;;;11.30;99.90;;;;;;5042298;28;20056;-45
2023/03/21 11:41:04;;;;;;;21.17;12.23;;;11.30;99.90;;;;;;5041369;28;20049;-49
2023/03/21 11:43:36;;;;;;;15.88;11.70;;;11.20;99.90;;;;;;5041783;28;20844;-45
2023/03/21 11:46:04;;;;;;;19.27;12.23;;;11.10;99.90;;;;;;5041362;28;20057;-47
2023/03/21 11:48:40;;;;;;;18.33;12.63;;;11.10;99.90;;;;;;5042323;28;20411;-45
2023/03/21 11:51:26;;;;;;;14.85;11.15;;;11.10;99.90;;;;;;5057442;28;20077;-50
2023/03/21 11:54:30;;;;;;;14.10;11.65;;;11.20;99.90;;;;;;5057868;28;20045;-46
2023/03/21 11:57:06;;;;;;;15.57;12.05;;;11.30;99.90;;;;;;5054612;28;20044;-44
2023/03/21 11:59:46;;;;;;;16.52;11.93;;;11.40;99.90;;;;;;5083746;28;20052;-44
2023/03/21 12:02:53;;;;;;;16.48;11.02;;;11.50;99.90;;;;;;5052227;28;20044;-42
2023/03/21 12:05:27;;;;;;;16.67;11.27;;;11.30;99.90;;;;;;5053557;28;20463;-46
2023/03/21 12:08:21;;;;;;;16.67;11.10;;;11.10;99.90;;;;;;5043153;28;20553;-47
2023/03/21 12:10:57;;;;;;;;;;;11.00;99.90;;;;;;5044858;28;20051;-43
2023/03/21 12:13:32;;;;;;;18.15;11.40;;;11.00;99.90;;;;;;5047079;28;19974;-51
2023/03/21 12:16:16;;;;;;;20.92;11.68;;;11.00;99.90;;;;;;5051647;28;20052;-49
2023/03/21 12:19:09;;;;;;;16.67;12.00;;;11.00;99.90;;;;;;5053189;28;20132;-43
2023/03/21 12:21:43;;;;;;;19.15;12.20;;;11.10;99.90;;;;;;5049878;28;20562;-50
2023/03/21 12:24:55;;;;;;;19.90;12.90;;;11.20;99.90;;;;;;5053778;28;20044;-46
2023/03/21 12:27:29;;;;;;;18.42;11.95;;;11.30;99.90;;;;;;5028861;28;20484;-44
2023/03/21 12:30:12;;;;;;;16.10;12.02;;;11.30;99.90;;;;;;5010284;28;20576;-50
2023/03/21 12:33:12;;;;;;;17.30;12.57;;;11.30;99.90;;;;;;5010392;28;20060;-43
2023/03/21 12:35:46;;;;;;;21.15;12.52;;;11.40;99.90;;;;;;4915174;29;20306;-46
2023/03/21 12:38:21;;;;;;;17.17;12.60;;;11.50;99.90;;;;;;4914580;29;20349;-44
2023/03/21 12:41:06;;;;;;;19.40;11.98;;;11.70;99.90;;;;;;4914802;29;20064;-50
2023/03/21 12:44:01;;;;;;;14.88;12.25;;;11.80;99.90;;;;;;4913520;29;20090;-47
2023/03/21 12:46:31;;;;;;;20.42;12.50;;;11.90;99.90;;;;;;4821907;29;20062;-45
2023/03/21 12:49:06;;;;;;;17.48;12.70;;;12.00;99.90;;;;;;4821932;29;20057;-44
2023/03/21 12:51:36;;;;;;;18.73;12.25;;;12.10;99.90;;;;;;4820417;29;20523;-46